createdAt,value
2019-02-26T00:00:20.168Z,59.03
2019-02-26T00:02:48.605Z,62.80
2019-02-26T00:05:17.317Z,59.07
2019-02-26T00:07:44.418Z,63.53
2019-02-26T00:10:10.586Z,62.80
2019-02-26T00:12:37.010Z,61.67
2019-02-26T00:15:07.425Z,63.40
2019-02-26T00:17:38.546Z,64.77
2019-02-26T00:20:05.597Z,63.23
2019-02-26T00:22:32.392Z,65.10
2019-02-26T00:25:01.009Z,68.03
2019-02-26T00:27:30.110Z,71.03
2019-02-26T00:29:56.032Z,66.20
2019-02-26T00:32:22.604Z,73.07
2019-02-26T00:34:49.176Z,67.17
2019-02-26T00:37:15.578Z,70.10
2019-02-26T00:43:06.555Z,77.90
2019-02-26T00:45:34.066Z,71.20
2019-02-26T00:48:01.588Z,83.80
2019-02-26T00:50:28.502Z,78.03
2019-02-26T00:52:57.101Z,72.53
2019-02-26T00:55:27.313Z,77.23
2019-02-26T00:57:52.399Z,77.70
2019-02-26T01:00:18.895Z,72.43
2019-02-26T01:02:45.441Z,77.80
2019-02-26T01:05:15.709Z,77.90
2019-02-26T01:07:44.912Z,77.07
2019-02-26T01:10:13.401Z,80.87
2019-02-26T01:12:40.304Z,77.90
2019-02-26T01:15:17.446Z,83.20
2019-02-26T01:17:44.443Z,78.50
2019-02-26T01:20:13.208Z,76.80
2019-02-26T01:22:40.237Z,77.13
2019-02-26T01:25:10.290Z,85.43
2019-02-26T01:27:37.251Z,81.80
2019-02-26T01:30:07.185Z,80.90
2019-02-26T01:32:33.452Z,87.13
2019-02-26T01:35:00.876Z,78.70
2019-02-26T01:37:29.894Z,80.20
2019-02-26T01:39:56.503Z,83.27
2019-02-26T01:42:24.875Z,88.27
2019-02-26T01:44:51.250Z,81.07
2019-02-26T01:47:19.484Z,86.03
2019-02-26T01:49:46.442Z,87.77
2019-02-26T01:52:15.094Z,89.67
2019-02-26T01:54:42.531Z,95.63
2019-02-26T01:57:09.273Z,96.73
2019-02-26T01:59:36.007Z,90.20
2019-02-26T02:02:02.451Z,96.70
2019-02-26T02:04:28.830Z,101.10
2019-02-26T02:07:01.847Z,96.97
2019-02-26T02:09:29.203Z,97.70
2019-02-26T02:11:57.424Z,98.90
2019-02-26T02:14:23.781Z,98.47
2019-02-26T02:16:50.205Z,94.33
2019-02-26T02:19:20.116Z,97.23
2019-02-26T02:21:46.898Z,99.47
2019-02-26T02:24:15.566Z,103.90
2019-02-26T02:26:45.329Z,103.23
2019-02-26T02:29:12.666Z,102.13
2019-02-26T02:31:38.236Z,96.10
2019-02-26T02:34:06.245Z,103.80
2019-02-26T02:36:32.767Z,100.30
2019-02-26T02:38:59.225Z,96.60
2019-02-26T02:41:25.644Z,93.93
2019-02-26T02:43:51.976Z,103.63
2019-02-26T02:46:18.245Z,99.03
2019-02-26T02:48:44.677Z,107.33
2019-02-26T02:51:13.894Z,97.30
2019-02-26T02:53:40.108Z,107.23
2019-02-26T02:56:09.201Z,106.07
2019-02-26T02:58:35.032Z,100.50
2019-02-26T03:01:01.503Z,103.07
2019-02-26T03:03:40.994Z,101.40
2019-02-26T03:06:10.384Z,97.00
2019-02-26T03:08:39.308Z,95.73
2019-02-26T03:11:06.400Z,103.93
2019-02-26T03:13:32.663Z,106.33
2019-02-26T03:16:01.443Z,96.67
2019-02-26T03:18:27.315Z,102.27
2019-02-26T03:20:54.634Z,101.27
2019-02-26T03:23:21.633Z,105.30
2019-02-26T03:25:50.345Z,106.47
2019-02-26T03:28:16.326Z,100.47
2019-02-26T03:30:44.237Z,103.13
2019-02-26T03:33:11.017Z,113.67
2019-02-26T03:35:37.217Z,102.43
2019-02-26T03:38:03.730Z,112.83
2019-02-26T03:40:33.023Z,111.63
2019-02-26T03:42:58.408Z,98.77
2019-02-26T03:45:25.266Z,104.40
2019-02-26T03:47:51.498Z,102.93
2019-02-26T03:50:18.277Z,100.43
2019-02-26T03:52:45.020Z,103.53
2019-02-26T03:55:14.127Z,98.47
2019-02-26T03:57:43.642Z,112.93
2019-02-26T04:00:14.123Z,103.70
2019-02-26T04:02:43.338Z,104.87
2019-02-26T04:08:33.103Z,104.83
2019-02-26T04:11:01.908Z,107.90
2019-02-26T04:13:27.522Z,96.10
2019-02-26T04:15:56.338Z,103.03
2019-02-26T04:18:22.321Z,112.13
2019-02-26T04:20:48.857Z,104.77
2019-02-26T04:23:18.717Z,104.73
2019-02-26T04:25:54.171Z,105.23
2019-02-26T04:28:27.255Z,108.03
2019-02-26T04:30:59.706Z,104.57
2019-02-26T04:33:30.772Z,105.63
2019-02-26T04:36:02.089Z,101.13
2019-02-26T04:39:07.653Z,103.13
2019-02-26T04:42:16.833Z,96.40
2019-02-26T04:45:09.349Z,98.60
2019-02-26T04:47:51.850Z,101.27
2019-02-26T04:50:17.625Z,99.63
2019-02-26T04:52:43.831Z,100.97
2019-02-26T04:55:10.451Z,103.73
2019-02-26T04:57:39.420Z,103.50
2019-02-26T05:00:09.899Z,99.90
2019-02-26T05:02:35.557Z,108.07
2019-02-26T05:05:02.239Z,112.10
2019-02-26T05:07:28.582Z,102.10
2019-02-26T05:09:56.850Z,105.47
2019-02-26T05:12:25.247Z,114.13
2019-02-26T05:14:51.486Z,101.87
2019-02-26T05:17:19.062Z,107.17
2019-02-26T05:19:48.423Z,109.10
2019-02-26T05:22:22.709Z,103.50
2019-02-26T05:24:50.283Z,98.83
2019-02-26T05:27:19.718Z,94.43
2019-02-26T05:29:46.655Z,104.57
2019-02-26T05:32:13.330Z,97.17
2019-02-26T05:34:40.827Z,106.07
2019-02-26T05:37:10.969Z,106.93
2019-02-26T05:39:36.480Z,108.70
2019-02-26T05:42:04.097Z,102.63
2019-02-26T05:44:31.193Z,101.87
2019-02-26T05:46:58.883Z,102.90
2019-02-26T05:49:25.780Z,106.17
2019-02-26T05:51:53.516Z,99.87
2019-02-26T05:54:21.724Z,104.80
2019-02-26T05:56:49.747Z,103.97
2019-02-26T05:59:17.964Z,105.67
2019-02-26T06:01:46.538Z,110.70
2019-02-26T06:04:14.879Z,102.70
2019-02-26T06:06:41.129Z,106.20
2019-02-26T06:09:07.785Z,111.20
2019-02-26T06:11:38.599Z,110.30
2019-02-26T06:14:06.610Z,106.80
2019-02-26T06:16:31.490Z,111.03
2019-02-26T06:18:58.551Z,100.97
2019-02-26T06:21:26.051Z,110.33
2019-02-26T06:23:53.851Z,116.30
2019-02-26T06:26:20.476Z,105.10
2019-02-26T06:28:54.611Z,110.47
2019-02-26T06:31:22.100Z,106.13
2019-02-26T06:33:50.719Z,116.47
2019-02-26T06:36:18.444Z,113.53
2019-02-26T06:38:49.325Z,109.40
2019-02-26T06:41:13.980Z,109.77
2019-02-26T06:43:42.772Z,118.20
2019-02-26T06:46:09.821Z,109.90
2019-02-26T06:48:36.885Z,112.07
2019-02-26T06:51:04.699Z,114.90
2019-02-26T06:53:31.391Z,114.77
2019-02-26T06:55:58.547Z,112.27
2019-02-26T06:58:26.427Z,112.90
2019-02-26T07:00:55.499Z,109.77
2019-02-26T07:03:24.239Z,116.90
2019-02-26T07:05:50.033Z,115.00
2019-02-26T07:08:16.675Z,109.77
2019-02-26T07:10:43.606Z,116.00
2019-02-26T07:13:11.830Z,106.10
2019-02-26T07:15:38.385Z,120.00
2019-02-26T07:18:07.219Z,114.53
2019-02-26T07:20:34.319Z,120.07
2019-02-26T07:23:03.409Z,108.23
2019-02-26T07:25:31.779Z,115.20
2019-02-26T07:28:02.905Z,108.00
2019-02-26T07:30:29.915Z,113.60
2019-02-26T07:32:56.289Z,114.70
2019-02-26T07:35:22.589Z,107.97
2019-02-26T07:37:59.477Z,104.33
2019-02-26T07:40:28.458Z,114.50
2019-02-26T07:42:54.694Z,109.47
2019-02-26T07:45:22.863Z,102.77
2019-02-26T07:47:51.465Z,111.57
2019-02-26T07:50:17.728Z,112.40
2019-02-26T07:52:44.434Z,119.70
2019-02-26T07:55:12.135Z,111.50
2019-02-26T07:57:40.545Z,119.00
2019-02-26T08:00:16.565Z,122.53
2019-02-26T08:02:42.938Z,115.73
2019-02-26T08:05:10.371Z,121.67
2019-02-26T08:07:37.003Z,105.87
2019-02-26T08:10:16.974Z,110.67
2019-02-26T08:12:44.105Z,121.63
2019-02-26T08:15:15.448Z,112.87
2019-02-26T08:17:45.642Z,114.90
2019-02-26T08:20:14.308Z,123.27
2019-02-26T08:22:40.242Z,113.07
2019-02-26T08:25:34.407Z,118.37
2019-02-26T08:28:01.376Z,121.20
2019-02-26T08:30:27.901Z,112.60
2019-02-26T08:32:56.097Z,109.97
2019-02-26T08:35:23.046Z,119.43
2019-02-26T08:37:49.632Z,115.30
2019-02-26T08:40:16.098Z,113.07
2019-02-26T08:42:42.536Z,110.50
2019-02-26T08:45:12.489Z,106.57
2019-02-26T08:47:39.898Z,105.13
2019-02-26T08:50:10.022Z,103.23
2019-02-26T08:52:41.102Z,107.77
2019-02-26T08:55:10.730Z,107.20
2019-02-26T08:57:38.738Z,102.53
2019-02-26T09:00:11.399Z,98.83
2019-02-26T09:02:38.050Z,100.43
2019-02-26T09:05:07.641Z,107.47
2019-02-26T09:07:34.838Z,104.03
2019-02-26T09:10:01.364Z,98.13
2019-02-26T09:12:27.895Z,97.40
2019-02-26T09:14:54.577Z,102.20
2019-02-26T09:17:23.161Z,103.47
2019-02-26T09:19:50.914Z,101.00
2019-02-26T09:22:19.302Z,105.30
2019-02-26T09:24:46.841Z,98.57
2019-02-26T09:27:13.230Z,98.00
2019-02-26T09:29:41.893Z,107.63
2019-02-26T09:32:09.279Z,104.63
2019-02-26T09:34:39.345Z,108.83
2019-02-26T09:37:05.779Z,109.40
2019-02-26T09:39:36.002Z,102.60
2019-02-26T09:42:02.248Z,99.40
2019-02-26T09:44:30.953Z,96.90
2019-02-26T09:46:58.282Z,106.67
2019-02-26T09:49:26.272Z,104.50
2019-02-26T09:51:56.731Z,102.37
2019-02-26T09:54:22.635Z,104.20
2019-02-26T09:56:49.720Z,99.03
2019-02-26T09:59:16.610Z,101.53
2019-02-26T10:01:43.093Z,96.63
2019-02-26T10:04:09.344Z,102.40
2019-02-26T10:06:37.896Z,106.60
2019-02-26T10:09:04.907Z,108.07
2019-02-26T10:11:31.150Z,98.10
2019-02-26T10:13:57.954Z,95.40
2019-02-26T10:16:25.724Z,103.90
2019-02-26T10:18:54.441Z,105.23
2019-02-26T10:21:20.761Z,104.70
2019-02-26T10:23:51.441Z,100.17
2019-02-26T10:26:15.611Z,108.90
2019-02-26T10:28:43.409Z,99.87
2019-02-26T10:31:10.530Z,99.70
2019-02-26T10:33:40.184Z,97.70
2019-02-26T10:36:07.919Z,100.17
2019-02-26T10:38:36.008Z,104.90
2019-02-26T10:41:02.053Z,99.97
2019-02-26T10:43:28.530Z,95.20
2019-02-26T10:45:55.210Z,107.33
2019-02-26T10:48:27.911Z,102.83
2019-02-26T10:50:54.470Z,104.60
2019-02-26T10:53:22.550Z,112.87
2019-02-26T10:55:49.258Z,109.23
2019-02-26T10:58:15.527Z,102.23
2019-02-26T11:00:43.102Z,112.43
2019-02-26T11:03:12.095Z,108.90
2019-02-26T11:05:39.853Z,107.03
2019-02-26T11:08:09.145Z,112.43
2019-02-26T11:10:34.092Z,109.87
2019-02-26T11:13:00.793Z,106.70
2019-02-26T11:15:30.259Z,107.97
2019-02-26T11:17:55.937Z,102.57
2019-02-26T11:20:25.508Z,109.17
2019-02-26T11:22:52.074Z,112.87
2019-02-26T11:25:21.448Z,108.80
2019-02-26T11:27:48.409Z,101.30
2019-02-26T11:30:20.489Z,103.70
2019-02-26T11:32:47.060Z,101.33
2019-02-26T11:35:17.072Z,113.00
2019-02-26T11:37:45.396Z,101.53
2019-02-26T11:40:17.298Z,102.67
2019-02-26T11:42:46.579Z,106.27
2019-02-26T11:45:20.833Z,115.63
2019-02-26T11:47:47.477Z,117.70
2019-02-26T11:50:19.174Z,104.80
2019-02-26T11:52:45.673Z,102.57
2019-02-26T11:55:13.806Z,97.30
2019-02-26T11:57:42.335Z,103.97
2019-02-26T12:00:24.270Z,108.40
2019-02-26T12:02:43.648Z,107.20
2019-02-26T12:05:10.797Z,105.60
2019-02-26T12:07:37.389Z,102.50
2019-02-26T12:10:10.391Z,98.10
2019-02-26T12:12:36.946Z,98.73
2019-02-26T12:15:12.337Z,104.13
2019-02-26T12:17:37.800Z,102.47
2019-02-26T12:20:07.357Z,93.97
2019-02-26T12:22:33.710Z,110.23
2019-02-26T12:25:02.704Z,105.07
2019-02-26T12:27:28.345Z,102.40
2019-02-26T12:29:55.118Z,102.97
2019-02-26T12:32:22.370Z,106.23
2019-02-26T12:34:51.479Z,96.27
2019-02-26T12:37:18.228Z,101.57
2019-02-26T12:39:47.461Z,96.43
2019-02-26T12:42:13.991Z,101.63
2019-02-26T12:44:44.820Z,98.67
2019-02-26T12:47:11.523Z,96.33
2019-02-26T12:49:39.128Z,93.87
2019-02-26T12:52:05.841Z,90.67
2019-02-26T12:54:33.652Z,80.57
2019-02-26T12:57:04.040Z,90.73
2019-02-26T12:59:29.031Z,87.93
2019-02-26T13:01:55.849Z,88.47
2019-02-26T13:04:24.912Z,84.67
2019-02-26T13:06:52.032Z,85.00
2019-02-26T13:09:18.709Z,89.73
2019-02-26T13:12:00.725Z,91.17
2019-02-26T13:14:13.332Z,86.80
2019-02-26T13:16:39.758Z,83.50
2019-02-26T13:19:06.075Z,93.67
2019-02-26T13:21:32.556Z,90.03
2019-02-26T13:24:11.465Z,94.07
2019-02-26T13:26:27.401Z,83.30
2019-02-26T13:28:56.183Z,84.67
2019-02-26T13:31:22.742Z,100.43
2019-02-26T13:33:49.445Z,79.20
2019-02-26T13:36:16.553Z,86.13
2019-02-26T13:38:48.178Z,82.10
2019-02-26T13:41:29.009Z,85.33
2019-02-26T13:43:39.342Z,87.20
2019-02-26T13:46:05.970Z,84.03
2019-02-26T13:48:32.481Z,84.20
2019-02-26T13:50:58.896Z,87.73
2019-02-26T13:53:25.957Z,81.60
2019-02-26T13:55:52.484Z,81.57
2019-02-26T13:58:19.381Z,84.33
2019-02-26T14:00:46.951Z,92.10
2019-02-26T14:03:13.766Z,89.83
2019-02-26T14:05:39.983Z,78.40
2019-02-26T14:08:06.658Z,76.73
2019-02-26T14:10:32.992Z,79.83
2019-02-26T14:12:59.840Z,76.83
2019-02-26T14:15:27.257Z,70.87
2019-02-26T14:17:53.691Z,81.60
2019-02-26T14:20:20.198Z,77.13
2019-02-26T14:22:46.687Z,92.63
2019-02-26T14:25:13.155Z,134.20
2019-02-26T14:27:39.487Z,92.93
2019-02-26T14:30:14.121Z,102.33
2019-02-26T14:32:40.422Z,96.67
2019-02-26T14:35:12.603Z,95.67
2019-02-26T14:37:39.266Z,73.93
2019-02-26T14:40:08.760Z,77.33
2019-02-26T14:42:35.257Z,87.00
2019-02-26T14:45:01.802Z,98.00
2019-02-26T14:47:30.015Z,90.33
2019-02-26T14:49:57.103Z,88.57
2019-02-26T14:52:23.533Z,78.33
2019-02-26T14:54:49.784Z,85.53
2019-02-26T14:57:16.232Z,81.60
2019-02-26T14:59:42.986Z,77.40
2019-02-26T15:02:09.342Z,81.60
2019-02-26T15:04:35.633Z,75.07
2019-02-26T15:07:01.962Z,82.30
2019-02-26T15:09:28.581Z,76.97
2019-02-26T15:11:55.066Z,81.97
2019-02-26T15:14:21.360Z,85.20
2019-02-26T15:16:47.703Z,77.87
2019-02-26T15:19:14.113Z,78.10
2019-02-26T15:21:40.580Z,87.90
2019-02-26T15:24:07.222Z,89.20
2019-02-26T15:26:33.700Z,114.80
2019-02-26T15:29:00.346Z,125.73
2019-02-26T15:31:26.772Z,113.57
2019-02-26T15:33:52.950Z,140.50
2019-02-26T15:36:19.210Z,191.67
2019-02-26T15:38:46.429Z,155.07
2019-02-26T15:41:13.141Z,145.30
2019-02-26T15:43:39.453Z,118.07
2019-02-26T15:46:07.653Z,84.93
2019-02-26T15:48:36.453Z,114.37
2019-02-26T15:51:02.812Z,90.90
2019-02-26T15:53:29.337Z,91.73
2019-02-26T15:55:59.207Z,79.47
2019-02-26T15:58:23.764Z,77.77
2019-02-26T16:00:50.557Z,84.00
2019-02-26T16:03:21.729Z,83.43
2019-02-26T16:05:48.526Z,75.30
2019-02-26T16:08:15.008Z,81.33
2019-02-26T16:14:15.773Z,85.70
2019-02-26T16:16:42.089Z,91.53
2019-02-26T16:19:08.677Z,83.33
2019-02-26T16:21:35.456Z,83.90
2019-02-26T16:24:01.987Z,85.60
2019-02-26T16:26:28.289Z,93.13
2019-02-26T16:28:56.415Z,85.27
2019-02-26T16:31:22.855Z,84.93
2019-02-26T16:33:49.253Z,84.83
2019-02-26T16:36:16.134Z,92.10
2019-02-26T16:38:42.426Z,112.37
2019-02-26T16:41:09.074Z,112.23
2019-02-26T16:43:35.492Z,112.20
2019-02-26T16:46:02.220Z,146.73
2019-02-26T16:48:28.654Z,103.23
2019-02-26T16:50:55.521Z,118.03
2019-02-26T16:53:22.367Z,96.20
2019-02-26T16:55:49.633Z,116.40
2019-02-26T16:58:16.183Z,161.00
2019-02-26T17:00:48.824Z,106.30
2019-02-26T17:03:15.419Z,104.47
2019-02-26T17:05:42.113Z,121.90
2019-02-26T17:08:08.716Z,138.60
2019-02-26T17:10:35.382Z,104.07
2019-02-26T17:13:03.032Z,98.63
2019-02-26T17:15:34.086Z,100.93
2019-02-26T17:18:00.399Z,111.13
2019-02-26T17:20:27.604Z,112.43
2019-02-26T17:22:55.409Z,103.37
2019-02-26T17:25:22.251Z,101.40
2019-02-26T17:27:48.866Z,108.13
2019-02-26T17:30:16.717Z,105.97
2019-02-26T17:32:43.351Z,100.93
2019-02-26T17:35:10.947Z,100.80
2019-02-26T17:37:41.161Z,101.60
2019-02-26T17:40:12.006Z,103.97
2019-02-26T17:42:38.452Z,93.00
2019-02-26T17:45:10.902Z,95.10
2019-02-26T17:47:37.767Z,96.50
2019-02-26T17:50:09.657Z,94.20
2019-02-26T17:52:36.081Z,95.77
2019-02-26T17:55:05.077Z,95.53
2019-02-26T17:57:34.660Z,97.03
2019-02-26T18:00:00.481Z,93.67
2019-02-26T18:02:27.561Z,96.77
2019-02-26T18:04:54.920Z,100.27
2019-02-26T18:07:21.385Z,96.43
2019-02-26T18:12:55.772Z,100.93
2019-02-26T18:15:22.383Z,96.90
2019-02-26T18:17:48.535Z,94.73
2019-02-26T18:20:17.988Z,99.10
2019-02-26T18:22:44.591Z,100.10
2019-02-26T18:25:16.459Z,96.80
2019-02-26T18:27:42.658Z,102.10
2019-02-26T18:30:12.863Z,101.40
2019-02-26T18:32:39.024Z,101.80
2019-02-26T18:35:05.254Z,96.90
2019-02-26T18:37:31.693Z,99.80
2019-02-26T18:39:57.883Z,93.47
2019-02-26T18:42:23.982Z,108.43
2019-02-26T18:44:51.872Z,102.63
2019-02-26T18:47:18.254Z,115.40
2019-02-26T18:49:44.407Z,120.53
2019-02-26T18:52:10.623Z,114.90
2019-02-26T18:54:36.810Z,115.37
2019-02-26T18:57:02.946Z,114.27
2019-02-26T18:59:29.352Z,124.80
2019-02-26T19:01:55.474Z,124.23
2019-02-26T19:04:21.520Z,138.57
2019-02-26T19:06:47.544Z,119.07
2019-02-26T19:09:15.263Z,133.93
2019-02-26T19:11:41.414Z,127.73
2019-02-26T19:14:09.238Z,118.70
2019-02-26T19:16:35.503Z,110.33
2019-02-26T19:19:01.635Z,104.97
2019-02-26T19:21:27.767Z,103.77
2019-02-26T19:23:53.884Z,97.80
2019-02-26T19:26:20.010Z,95.47
2019-02-26T19:28:46.043Z,99.50
2019-02-26T19:31:12.199Z,105.03
2019-02-26T19:33:38.320Z,97.50
2019-02-26T19:36:04.438Z,101.60
2019-02-26T19:38:30.781Z,124.13
2019-02-26T19:41:00.685Z,94.87
2019-02-26T19:43:28.703Z,100.10
2019-02-26T19:45:54.737Z,95.27
2019-02-26T19:48:20.816Z,99.90
2019-02-26T19:50:48.769Z,100.90
2019-02-26T19:53:15.189Z,100.80
2019-02-26T19:55:44.148Z,97.00
2019-02-26T19:58:10.182Z,97.50
2019-02-26T20:00:36.219Z,100.50
2019-02-26T20:03:04.874Z,98.87
2019-02-26T20:05:30.261Z,101.93
2019-02-26T20:07:56.287Z,94.03
2019-02-26T20:10:22.293Z,93.93
2019-02-26T20:12:50.348Z,91.87
2019-02-26T20:15:16.360Z,96.37
2019-02-26T20:17:42.354Z,98.90
2019-02-26T20:20:10.806Z,100.07
2019-02-26T20:22:37.025Z,102.63
2019-02-26T20:25:09.466Z,99.93
2019-02-26T20:27:35.948Z,90.30
2019-02-26T20:30:04.611Z,96.13
2019-02-26T20:32:31.595Z,96.13
2019-02-26T20:34:57.828Z,96.67
2019-02-26T20:37:24.424Z,93.43
2019-02-26T20:39:51.285Z,96.13
2019-02-26T20:42:17.672Z,96.23
2019-02-26T20:44:45.488Z,95.00
2019-02-26T20:47:11.672Z,90.97
2019-02-26T20:49:37.830Z,90.57
2019-02-26T20:52:04.049Z,87.23
2019-02-26T20:54:30.104Z,99.27
2019-02-26T20:56:56.219Z,96.23
2019-02-26T20:59:22.618Z,92.67
2019-02-26T21:01:49.568Z,86.10
2019-02-26T21:04:15.865Z,104.60
2019-02-26T21:06:41.949Z,92.83
2019-02-26T21:09:08.087Z,97.73
2019-02-26T21:11:34.184Z,95.90
2019-02-26T21:14:00.224Z,97.10
2019-02-26T21:16:26.449Z,105.63
2019-02-26T21:18:52.578Z,92.90
2019-02-26T21:21:18.636Z,90.37
2019-02-26T21:23:44.960Z,95.27
2019-02-26T21:26:10.997Z,105.37
2019-02-26T21:28:37.284Z,91.77
2019-02-26T21:31:03.446Z,94.40
2019-02-26T21:33:30.804Z,96.97
2019-02-26T21:35:57.570Z,99.43
2019-02-26T21:38:23.631Z,85.63
2019-02-26T21:40:51.978Z,93.23
2019-02-26T21:43:17.746Z,90.33
2019-02-26T21:45:44.537Z,99.23
2019-02-26T21:48:10.866Z,96.47
2019-02-26T21:50:37.049Z,97.03
2019-02-26T21:53:03.161Z,98.20
2019-02-26T21:55:33.814Z,100.93
2019-02-26T21:57:57.800Z,100.27
2019-02-26T22:00:23.862Z,92.60
2019-02-26T22:02:52.426Z,97.67
2019-02-26T22:05:17.841Z,97.50
2019-02-26T22:07:44.010Z,95.40
2019-02-26T22:10:15.779Z,95.43
2019-02-26T22:12:41.937Z,89.87
2019-02-26T22:15:11.078Z,86.23
2019-02-26T22:17:37.646Z,87.13
2019-02-26T22:20:09.283Z,85.93
2019-02-26T22:22:35.152Z,87.07
2019-02-26T22:25:09.225Z,91.37
2019-02-26T22:27:29.174Z,97.63
2019-02-26T22:29:55.222Z,96.90
2019-02-26T22:32:21.351Z,98.07
2019-02-26T22:34:47.485Z,95.50
2019-02-26T22:37:13.494Z,99.93
2019-02-26T22:39:39.530Z,101.30
2019-02-26T22:42:07.899Z,110.73
2019-02-26T22:44:33.600Z,110.83
2019-02-26T22:46:59.740Z,115.27
2019-02-26T22:49:25.774Z,116.87
2019-02-26T22:51:51.930Z,113.80
2019-02-26T22:54:18.009Z,108.17
2019-02-26T22:56:44.310Z,119.37
2019-02-26T23:02:23.099Z,122.33
2019-02-26T23:04:52.546Z,134.30
2019-02-26T23:07:17.196Z,125.73
2019-02-26T23:09:43.764Z,128.60
2019-02-26T23:12:09.811Z,129.33
2019-02-26T23:14:38.646Z,131.00
2019-02-26T23:17:05.254Z,133.13
2019-02-26T23:19:31.369Z,128.23
2019-02-26T23:21:57.410Z,132.50
2019-02-26T23:24:27.743Z,127.00
2019-02-26T23:26:51.640Z,117.80
2019-02-26T23:29:17.791Z,124.60
2019-02-26T23:31:44.222Z,124.17
2019-02-26T23:34:10.284Z,126.37
2019-02-26T23:36:36.375Z,126.60
2019-02-26T23:39:05.146Z,122.57
2019-02-26T23:41:33.080Z,124.67
2019-02-26T23:43:59.389Z,134.03
2019-02-26T23:46:29.518Z,136.83
2019-02-26T23:48:53.604Z,136.80
2019-02-26T23:51:21.138Z,128.87
2019-02-26T23:53:47.444Z,136.83
2019-02-26T23:56:13.510Z,141.50
2019-02-26T23:58:39.662Z,136.37
